Time;durP1;ratioP1;P1;durP2;ratioP2;P2;SDS_P1;SDS_P2;PMS_P1;PMS_P2;Temp;Humidity;BMP_temperature;BMP_pressure;BME280_temperature;BME280_humidity;BME280_pressure;Samples;Min_cycle;Max_cycle;Signal;HPM_P1;HPM_P2
2023/09/02 00:01:08;;;;;;;9.50;3.50;;;;;;;;;;5008691;28;20064;-73
2023/09/02 00:03:35;;;;;;;8.93;4.00;;;;;;;;;;5003879;28;20271;-73
2023/09/02 00:06:00;;;;;;;7.65;2.97;;;;;;;;;;5003052;28;20022;-73
2023/09/02 00:08:25;;;;;;;7.93;3.90;;;;;;;;;;4986774;28;20026;-73
2023/09/02 00:10:50;;;;;;;5.83;3.30;;;;;;;;;;5007831;28;20615;-73
2023/09/02 00:13:15;;;;;;;9.03;3.77;;;;;;;;;;5001635;28;20372;-73
2023/09/02 00:15:41;;;;;;;5.43;3.43;;;;;;;;;;5005698;28;20289;-73
2023/09/02 00:18:06;;;;;;;14.45;4.00;;;;;;;;;;5004844;28;20265;-73
2023/09/02 00:20:31;;;;;;;7.30;3.37;;;;;;;;;;5006393;28;20040;-73
2023/09/02 00:22:56;;;;;;;6.57;3.80;;;;;;;;;;5003280;28;20288;-73
2023/09/02 00:25:24;;;;;;;8.90;3.30;;;;;;;;;;5006853;28;20712;-73
2023/09/02 00:27:50;;;;;;;7.60;3.75;;;;;;;;;;5005024;28;20072;-73
2023/09/02 00:30:15;;;;;;;18.05;3.95;;;;;;;;;;5011088;28;20104;-73
2023/09/02 00:32:40;;;;;;;13.00;3.72;;;;;;;;;;5007264;28;20106;-73
2023/09/02 00:35:05;;;;;;;7.40;3.35;;;;;;;;;;5004926;28;20153;-73
2023/09/02 00:37:31;;;;;;;6.70;3.50;;;;;;;;;;5008093;28;20071;-73
2023/09/02 00:39:56;;;;;;;6.75;3.58;;;;;;;;;;5010969;28;20014;-73
2023/09/02 00:42:23;;;;;;;11.07;3.50;;;;;;;;;;5008499;28;20928;-73
2023/09/02 00:44:48;;;;;;;7.07;3.92;;;;;;;;;;5000408;28;20108;-73
2023/09/02 00:47:13;;;;;;;8.88;3.88;;;;;;;;;;5002410;28;20069;-73
2023/09/02 00:49:39;;;;;;;7.60;3.45;;;;;;;;;;5006049;28;20092;-73
2023/09/02 00:52:04;;;;;;;9.68;4.47;;;;;;;;;;5002022;28;20027;-73
2023/09/02 00:54:30;;;;;;;8.32;3.95;;;;;;;;;;5005252;28;20395;-73
2023/09/02 00:56:55;;;;;;;11.02;4.28;;;;;;;;;;5007093;28;20026;-73
2023/09/02 00:59:21;;;;;;;8.90;4.93;;;;;;;;;;4999656;28;20029;-73
2023/09/02 01:01:46;;;;;;;10.57;4.32;;;;;;;;;;5003781;28;20014;-73
2023/09/02 01:04:11;;;;;;;9.73;4.55;;;;;;;;;;5010840;28;20025;-73
2023/09/02 01:06:37;;;;;;;11.52;4.43;;;;;;;;;;5007294;28;20057;-73
2023/09/02 01:09:03;;;;;;;9.85;5.72;;;;;;;;;;5004307;28;20101;-73
2023/09/02 01:11:29;;;;;;;9.35;4.45;;;;;;;;;;5008611;28;20018;-73
2023/09/02 01:13:54;;;;;;;13.27;4.57;;;;;;;;;;5010355;28;20049;-73
2023/09/02 01:16:19;;;;;;;12.93;4.33;;;;;;;;;;4987438;28;20025;-73
2023/09/02 01:18:44;;;;;;;13.17;4.90;;;;;;;;;;5001072;28;20320;-73
2023/09/02 01:21:18;;;;;;;12.80;4.72;;;;;;;;;;5002279;28;20273;-73
2023/09/02 01:23:45;;;;;;;13.07;5.93;;;;;;;;;;5000247;28;20022;-73
2023/09/02 01:26:10;;;;;;;9.25;4.30;;;;;;;;;;4998264;28;20015;-73
2023/09/02 01:28:40;;;;;;;10.10;4.68;;;;;;;;;;5001163;28;20036;-73
2023/09/02 01:31:06;;;;;;;8.07;4.10;;;;;;;;;;5002526;28;20034;-73
2023/09/02 01:33:31;;;;;;;10.10;4.65;;;;;;;;;;4999978;28;20049;-73
2023/09/02 01:35:58;;;;;;;12.32;4.68;;;;;;;;;;5001978;28;20428;-73
2023/09/02 01:38:25;;;;;;;13.05;4.30;;;;;;;;;;5007614;28;20064;-73
2023/09/02 01:40:51;;;;;;;12.70;4.70;;;;;;;;;;5009070;28;20040;-72
2023/09/02 01:43:20;;;;;;;10.73;4.80;;;;;;;;;;5006261;28;20471;-73
2023/09/02 01:45:46;;;;;;;10.82;4.55;;;;;;;;;;5007738;28;20541;-73
2023/09/02 01:48:11;;;;;;;13.02;4.97;;;;;;;;;;5010768;28;20041;-72
2023/09/02 01:50:38;;;;;;;11.30;4.95;;;;;;;;;;5010179;28;20100;-73
2023/09/02 01:53:03;;;;;;;11.50;4.85;;;;;;;;;;5010832;28;20030;-73
2023/09/02 01:55:29;;;;;;;9.32;5.05;;;;;;;;;;5007144;28;20028;-73
2023/09/02 01:57:57;;;;;;;9.35;4.75;;;;;;;;;;5012655;28;20027;-73
2023/09/02 02:00:22;;;;;;;16.58;5.38;;;;;;;;;;5010659;28;20032;-72
2023/09/02 02:02:53;;;;;;;11.37;5.23;;;;;;;;;;5007863;28;20019;-73
2023/09/02 02:05:20;;;;;;;11.55;6.18;;;;;;;;;;5007254;28;20360;-73
2023/09/02 02:07:48;;;;;;;14.38;5.25;;;;;;;;;;5018977;28;20022;-73
2023/09/02 02:10:16;;;;;;;10.10;5.13;;;;;;;;;;5012765;28;20022;-73
2023/09/02 02:12:41;;;;;;;14.13;5.85;;;;;;;;;;5005928;28;20117;-73
2023/09/02 02:15:10;;;;;;;14.73;5.20;;;;;;;;;;5015664;28;20109;-73
2023/09/02 02:17:36;;;;;;;10.70;5.25;;;;;;;;;;5018756;28;20010;-73
2023/09/02 02:20:01;;;;;;;14.32;5.47;;;;;;;;;;5025047;28;20093;-73
2023/09/02 02:22:26;;;;;;;11.40;5.13;;;;;;;;;;5020840;28;20101;-72
2023/09/02 02:24:51;;;;;;;19.07;5.73;;;;;;;;;;5019192;28;20273;-73
2023/09/02 02:27:16;;;;;;;17.03;4.73;;;;;;;;;;5012301;28;20303;-73
2023/09/02 02:29:41;;;;;;;13.87;5.70;;;;;;;;;;5012135;28;20257;-73
2023/09/02 02:32:07;;;;;;;16.70;5.97;;;;;;;;;;5026475;28;20742;-72
2023/09/02 02:34:32;;;;;;;11.93;5.22;;;;;;;;;;5023448;28;20292;-73
2023/09/02 02:36:57;;;;;;;12.20;5.70;;;;;;;;;;5025147;28;20014;-73
2023/09/02 02:39:22;;;;;;;13.63;5.32;;;;;;;;;;5013746;28;20049;-73
2023/09/02 02:41:47;;;;;;;16.47;5.83;;;;;;;;;;5006819;28;20057;-73
2023/09/02 02:44:12;;;;;;;15.57;5.30;;;;;;;;;;5007853;28;20052;-73
2023/09/02 02:46:38;;;;;;;15.53;5.50;;;;;;;;;;5015474;28;20283;-73
2023/09/02 02:49:03;;;;;;;9.37;4.77;;;;;;;;;;5011134;28;20284;-73
2023/09/02 02:51:28;;;;;;;14.73;5.60;;;;;;;;;;5011587;28;20762;-72
2023/09/02 02:53:53;;;;;;;12.50;5.73;;;;;;;;;;5003196;28;20276;-72
2023/09/02 02:56:19;;;;;;;12.85;5.40;;;;;;;;;;5002240;28;20045;-73
2023/09/02 02:58:44;;;;;;;13.05;5.53;;;;;;;;;;5007887;28;20022;-73
2023/09/02 03:01:11;;;;;;;13.17;5.30;;;;;;;;;;5008121;28;20046;-73
2023/09/02 03:03:36;;;;;;;14.02;5.97;;;;;;;;;;5010939;28;20268;-73
2023/09/02 03:06:03;;;;;;;11.10;5.20;;;;;;;;;;5007639;28;20029;-73
2023/09/02 03:08:28;;;;;;;12.70;6.18;;;;;;;;;;5002887;28;20101;-73
2023/09/02 03:10:57;;;;;;;15.82;6.05;;;;;;;;;;5001363;28;20121;-73
2023/09/02 03:13:24;;;;;;;13.88;6.15;;;;;;;;;;5009009;28;20029;-73
2023/09/02 03:15:49;;;;;;;13.10;5.70;;;;;;;;;;5006971;28;20022;-73
2023/09/02 03:18:14;;;;;;;11.80;6.25;;;;;;;;;;5004433;28;20092;-73
2023/09/02 03:20:40;;;;;;;16.73;5.27;;;;;;;;;;5006295;28;20544;-73
2023/09/02 03:23:05;;;;;;;12.47;5.90;;;;;;;;;;5003122;28;20348;-72
2023/09/02 03:25:31;;;;;;;12.73;6.20;;;;;;;;;;5006308;28;20279;-73
2023/09/02 03:27:57;;;;;;;13.35;5.70;;;;;;;;;;5005281;28;20022;-73
2023/09/02 03:30:23;;;;;;;13.68;5.78;;;;;;;;;;5002500;28;20037;-73
2023/09/02 03:32:48;;;;;;;16.03;5.57;;;;;;;;;;5006423;28;20036;-73
2023/09/02 03:35:13;;;;;;;12.90;6.03;;;;;;;;;;5004041;28;20284;-73
2023/09/02 03:37:40;;;;;;;12.73;5.57;;;;;;;;;;5001600;28;20625;-73
2023/09/02 03:40:07;;;;;;;11.88;5.85;;;;;;;;;;5008015;28;20289;-73
2023/09/02 03:42:32;;;;;;;15.90;5.88;;;;;;;;;;5005529;28;20033;-73
2023/09/02 03:44:58;;;;;;;16.05;6.85;;;;;;;;;;5010774;28;20022;-73
2023/09/02 03:47:23;;;;;;;13.75;6.20;;;;;;;;;;4998840;28;20031;-73
2023/09/02 03:49:49;;;;;;;14.88;5.68;;;;;;;;;;5004231;28;20022;-73
2023/09/02 03:52:15;;;;;;;19.10;6.38;;;;;;;;;;5005054;28;20494;-73
2023/09/02 03:54:41;;;;;;;12.20;5.57;;;;;;;;;;5003197;28;20113;-72
2023/09/02 03:57:06;;;;;;;18.73;5.83;;;;;;;;;;5003253;28;20105;-73
2023/09/02 03:59:31;;;;;;;11.60;4.83;;;;;;;;;;5002660;28;20264;-73
2023/09/02 04:01:56;;;;;;;12.73;5.13;;;;;;;;;;5001469;28;20898;-73
2023/09/02 04:04:21;;;;;;;10.37;4.23;;;;;;;;;;5003085;28;20029;-73
2023/09/02 04:06:46;;;;;;;12.52;5.40;;;;;;;;;;5002348;28;20276;-73
2023/09/02 04:09:12;;;;;;;13.27;5.17;;;;;;;;;;5000504;28;20052;-73
2023/09/02 04:11:37;;;;;;;15.57;5.20;;;;;;;;;;5007524;28;20277;-72
2023/09/02 04:14:02;;;;;;;12.32;5.35;;;;;;;;;;5011405;28;20026;-73
2023/09/02 04:16:27;;;;;;;17.05;7.25;;;;;;;;;;5006225;28;20382;-73
2023/09/02 04:18:53;;;;;;;19.13;5.25;;;;;;;;;;5000783;28;20479;-73
2023/09/02 04:21:18;;;;;;;11.57;4.77;;;;;;;;;;5007549;28;20037;-73
2023/09/02 04:23:43;;;;;;;9.23;4.43;;;;;;;;;;5006456;28;20295;-73
2023/09/02 04:26:09;;;;;;;9.50;4.95;;;;;;;;;;5003643;28;20268;-73
2023/09/02 04:28:34;;;;;;;13.15;5.18;;;;;;;;;;5011058;28;20113;-73
2023/09/02 04:30:59;;;;;;;11.57;5.05;;;;;;;;;;5010909;28;20018;-73
2023/09/02 04:33:25;;;;;;;14.73;5.17;;;;;;;;;;5005320;28;20483;-73
2023/09/02 04:35:50;;;;;;;15.63;5.97;;;;;;;;;;5008548;28;20316;-73
2023/09/02 04:38:15;;;;;;;15.23;5.30;;;;;;;;;;5002924;28;20019;-73
2023/09/02 04:40:42;;;;;;;13.45;5.78;;;;;;;;;;5007180;28;20265;-73
2023/09/02 04:43:08;;;;;;;11.02;5.30;;;;;;;;;;5005698;28;20021;-73
2023/09/02 04:45:36;;;;;;;14.00;5.15;;;;;;;;;;5008254;28;20038;-73
2023/09/02 04:48:05;;;;;;;15.38;5.55;;;;;;;;;;5001323;28;20558;-73
2023/09/02 04:50:30;;;;;;;12.65;5.25;;;;;;;;;;5005100;28;20038;-73
2023/09/02 04:52:56;;;;;;;11.85;5.32;;;;;;;;;;5007689;28;20068;-73
2023/09/02 04:55:24;;;;;;;13.00;5.35;;;;;;;;;;5002629;28;20172;-73
2023/09/02 04:57:49;;;;;;;16.58;4.82;;;;;;;;;;5007247;28;20009;-73
2023/09/02 05:00:15;;;;;;;11.07;5.50;;;;;;;;;;5006192;28;20379;-72
2023/09/02 05:02:42;;;;;;;13.55;5.13;;;;;;;;;;5005109;28;20377;-73
2023/09/02 05:05:07;;;;;;;8.45;4.07;;;;;;;;;;5004305;28;20109;-73
2023/09/02 05:07:32;;;;;;;9.25;4.93;;;;;;;;;;5005500;28;20514;-72
2023/09/02 05:09:57;;;;;;;12.10;4.70;;;;;;;;;;5003899;28;20028;-73
2023/09/02 05:12:22;;;;;;;11.83;5.17;;;;;;;;;;5007398;28;20280;-73
2023/09/02 05:14:48;;;;;;;12.50;5.70;;;;;;;;;;5002440;28;20843;-73
2023/09/02 05:17:13;;;;;;;13.17;5.67;;;;;;;;;;4997146;28;20018;-73
2023/09/02 05:19:38;;;;;;;13.73;5.40;;;;;;;;;;5000100;28;20635;-73
2023/09/02 05:22:03;;;;;;;13.47;5.10;;;;;;;;;;4997189;28;20024;-73
2023/09/02 05:24:29;;;;;;;12.60;5.47;;;;;;;;;;5006994;28;20954;-72
2023/09/02 05:26:54;;;;;;;18.23;5.70;;;;;;;;;;5000791;28;20022;-73
2023/09/02 05:29:19;;;;;;;12.00;4.90;;;;;;;;;;5004024;28;20049;-73
2023/09/02 05:31:44;;;;;;;13.45;5.57;;;;;;;;;;5008485;28;20022;-72
2023/09/02 05:34:10;;;;;;;12.07;5.00;;;;;;;;;;4999749;28;20057;-73
2023/09/02 05:36:35;;;;;;;11.33;5.20;;;;;;;;;;5009624;28;20269;-73
2023/09/02 05:39:00;;;;;;;10.33;5.20;;;;;;;;;;5003214;28;20273;-73
2023/09/02 05:41:27;;;;;;;14.95;6.40;;;;;;;;;;5001273;28;20742;-72
2023/09/02 05:43:53;;;;;;;10.45;5.00;;;;;;;;;;4999775;28;20024;-72
2023/09/02 05:46:18;;;;;;;12.07;5.13;;;;;;;;;;4999082;28;20026;-72
2023/09/02 05:48:43;;;;;;;10.83;4.47;;;;;;;;;;5005586;28;20295;-72
2023/09/02 05:51:08;;;;;;;12.53;4.80;;;;;;;;;;5009485;28;20426;-72
2023/09/02 05:53:33;;;;;;;10.85;5.07;;;;;;;;;;4999517;28;20053;-72
2023/09/02 05:55:59;;;;;;;10.13;4.77;;;;;;;;;;4999240;28;20033;-72
2023/09/02 05:58:25;;;;;;;13.38;4.80;;;;;;;;;;4999935;28;20261;-72
2023/09/02 06:00:50;;;;;;;11.13;4.57;;;;;;;;;;4999918;28;20036;-72
2023/09/02 06:03:15;;;;;;;12.63;4.93;;;;;;;;;;5000609;28;20045;-72
2023/09/02 06:05:40;;;;;;;8.40;4.27;;;;;;;;;;5000577;28;20153;-72
2023/09/02 06:08:06;;;;;;;11.77;4.10;;;;;;;;;;4999213;28;20273;-72
2023/09/02 06:10:31;;;;;;;12.70;4.33;;;;;;;;;;5002836;28;20340;-72
2023/09/02 06:12:56;;;;;;;10.60;4.50;;;;;;;;;;5005544;28;20326;-72
2023/09/02 06:15:21;;;;;;;16.97;5.00;;;;;;;;;;5004313;28;20289;-72
2023/09/02 06:17:46;;;;;;;13.45;4.90;;;;;;;;;;4996318;28;20073;-72
2023/09/02 06:20:15;;;;;;;12.93;4.57;;;;;;;;;;4995981;28;20030;-72
2023/09/02 06:22:40;;;;;;;10.63;4.80;;;;;;;;;;4995447;28;20264;-72
2023/09/02 06:25:06;;;;;;;12.90;4.72;;;;;;;;;;5001215;28;20083;-72
2023/09/02 06:27:31;;;;;;;11.60;4.93;;;;;;;;;;5002928;28;20971;-72
2023/09/02 06:29:56;;;;;;;11.90;5.57;;;;;;;;;;5002941;28;20407;-72
2023/09/02 06:32:21;;;;;;;10.67;5.03;;;;;;;;;;5003454;28;20396;-72
2023/09/02 06:34:47;;;;;;;10.20;4.70;;;;;;;;;;5012417;28;20025;-72
2023/09/02 06:37:12;;;;;;;11.77;4.38;;;;;;;;;;5013393;28;20724;-72
2023/09/02 06:39:37;;;;;;;9.27;4.57;;;;;;;;;;5007438;28;20665;-72
2023/09/02 06:42:02;;;;;;;10.70;3.58;;;;;;;;;;5003099;28;20295;-72
2023/09/02 06:44:28;;;;;;;7.55;3.67;;;;;;;;;;5010572;28;20018;-72
2023/09/02 06:46:53;;;;;;;10.27;4.03;;;;;;;;;;5000175;28;21838;-72
2023/09/02 06:49:18;;;;;;;8.37;3.80;;;;;;;;;;5003665;28;20034;-72
2023/09/02 06:51:43;;;;;;;8.52;3.45;;;;;;;;;;5001620;28;20545;-72
2023/09/02 06:54:09;;;;;;;8.10;3.60;;;;;;;;;;5000430;28;20026;-72
2023/09/02 06:56:34;;;;;;;6.68;3.20;;;;;;;;;;5003288;28;20014;-72
2023/09/02 06:58:59;;;;;;;8.83;3.43;;;;;;;;;;5002000;28;20494;-72
2023/09/02 07:01:26;;;;;;;6.63;3.17;;;;;;;;;;5000781;28;20022;-72
2023/09/02 07:03:53;;;;;;;6.80;3.38;;;;;;;;;;5008068;28;20014;-72
2023/09/02 07:06:19;;;;;;;9.68;3.15;;;;;;;;;;5010990;28;20054;-72
2023/09/02 07:08:45;;;;;;;7.03;3.13;;;;;;;;;;5003559;28;20056;-72
2023/09/02 07:11:11;;;;;;;7.95;3.25;;;;;;;;;;5003256;28;20030;-72
2023/09/02 07:13:36;;;;;;;4.50;3.08;;;;;;;;;;5007790;28;20036;-72
2023/09/02 07:16:02;;;;;;;3.83;2.70;;;;;;;;;;5010385;28;20026;-72
2023/09/02 07:18:27;;;;;;;6.70;2.83;;;;;;;;;;5009389;28;20502;-72
2023/09/02 07:20:57;;;;;;;7.50;2.60;;;;;;;;;;5008439;28;20439;-72
2023/09/02 07:23:22;;;;;;;9.03;2.80;;;;;;;;;;5005762;28;20037;-72
2023/09/02 07:25:47;;;;;;;4.67;3.03;;;;;;;;;;5008960;28;20281;-73
2023/09/02 07:28:12;;;;;;;7.27;2.30;;;;;;;;;;5007961;28;20478;-73
2023/09/02 07:30:38;;;;;;;6.00;2.50;;;;;;;;;;5005541;28;20025;-73
2023/09/02 07:33:03;;;;;;;3.70;2.17;;;;;;;;;;5012628;28;20030;-73
2023/09/02 07:35:28;;;;;;;4.50;2.65;;;;;;;;;;5010016;28;20029;-73
2023/09/02 07:37:53;;;;;;;3.83;2.17;;;;;;;;;;5010539;28;20057;-73
2023/09/02 07:40:19;;;;;;;4.90;2.07;;;;;;;;;;5009929;28;20021;-73
2023/09/02 07:42:44;;;;;;;8.48;2.28;;;;;;;;;;5011568;28;20269;-73
2023/09/02 07:45:09;;;;;;;4.80;1.77;;;;;;;;;;5003810;28;20034;-73
2023/09/02 07:47:34;;;;;;;9.98;2.13;;;;;;;;;;5002632;28;20422;-73
2023/09/02 07:49:59;;;;;;;2.13;1.43;;;;;;;;;;5006362;28;20104;-73
2023/09/02 07:52:25;;;;;;;6.20;1.75;;;;;;;;;;5017912;28;20398;-74
2023/09/02 07:54:50;;;;;;;2.53;1.40;;;;;;;;;;5008727;28;20043;-73
2023/09/02 07:57:15;;;;;;;2.35;1.40;;;;;;;;;;5007006;28;20650;-73
2023/09/02 07:59:41;;;;;;;1.83;1.30;;;;;;;;;;5008952;28;20038;-73
2023/09/02 08:02:06;;;;;;;5.43;1.90;;;;;;;;;;5009510;28;20105;-73
2023/09/02 08:04:31;;;;;;;1.43;1.10;;;;;;;;;;5009740;28;20030;-73
2023/09/02 08:06:56;;;;;;;2.90;1.50;;;;;;;;;;5005895;28;20114;-73
2023/09/02 08:09:21;;;;;;;3.70;1.10;;;;;;;;;;5000698;28;20026;-73
2023/09/02 08:11:46;;;;;;;5.30;1.37;;;;;;;;;;5010715;28;20034;-74
2023/09/02 08:14:12;;;;;;;3.97;1.40;;;;;;;;;;5002909;28;20038;-72
2023/09/02 08:16:37;;;;;;;1.67;1.10;;;;;;;;;;5003260;28;20022;-72
2023/09/02 08:19:02;;;;;;;1.23;0.90;;;;;;;;;;5004652;28;20699;-73
2023/09/02 08:21:27;;;;;;;1.50;1.10;;;;;;;;;;5006666;28;20026;-72
2023/09/02 08:23:52;;;;;;;2.50;0.87;;;;;;;;;;5010940;28;20013;-72
2023/09/02 08:26:18;;;;;;;4.53;1.00;;;;;;;;;;5005365;28;20033;-70
2023/09/02 08:28:44;;;;;;;1.48;1.02;;;;;;;;;;5005858;28;20021;-70
2023/09/02 08:31:11;;;;;;;5.47;1.80;;;;;;;;;;5010466;28;20018;-70
2023/09/02 08:33:36;;;;;;;1.55;1.13;;;;;;;;;;5008814;28;20036;-70
2023/09/02 08:36:01;;;;;;;2.10;0.85;;;;;;;;;;5007536;28;20037;-70
2023/09/02 08:38:27;;;;;;;1.73;0.90;;;;;;;;;;5003577;28;20715;-70
2023/09/02 08:40:54;;;;;;;1.77;0.90;;;;;;;;;;5006461;28;20272;-70
2023/09/02 08:43:20;;;;;;;1.45;0.85;;;;;;;;;;5005653;28;20022;-70
2023/09/02 08:45:48;;;;;;;1.17;0.77;;;;;;;;;;5000503;28;20029;-70
2023/09/02 08:48:19;;;;;;;4.15;0.93;;;;;;;;;;5006475;28;20034;-72
2023/09/02 08:50:45;;;;;;;3.08;0.80;;;;;;;;;;5003997;28;20032;-72
2023/09/02 08:53:10;;;;;;;0.75;0.65;;;;;;;;;;5002454;28;20018;-72
2023/09/02 08:55:36;;;;;;;2.03;0.60;;;;;;;;;;5005376;28;20471;-72
2023/09/02 08:58:02;;;;;;;1.45;0.93;;;;;;;;;;4999550;28;20274;-72
2023/09/02 09:00:27;;;;;;;1.10;0.80;;;;;;;;;;5003724;28;20014;-72
2023/09/02 09:02:53;;;;;;;1.33;0.70;;;;;;;;;;4999222;28;20029;-72
2023/09/02 09:05:18;;;;;;;5.47;1.03;;;;;;;;;;5003795;28;20022;-72
2023/09/02 09:07:44;;;;;;;1.25;0.80;;;;;;;;;;5001228;28;20289;-72
2023/09/02 09:10:14;;;;;;;2.53;0.88;;;;;;;;;;5000981;28;20557;-72
2023/09/02 09:12:40;;;;;;;0.73;0.60;;;;;;;;;;5001925;28;20513;-72
2023/09/02 09:15:06;;;;;;;0.73;0.60;;;;;;;;;;4994837;28;20120;-72
2023/09/02 09:17:31;;;;;;;1.05;0.82;;;;;;;;;;5010383;28;20045;-72
2023/09/02 09:19:59;;;;;;;1.55;0.80;;;;;;;;;;5003741;28;20025;-73
2023/09/02 09:22:25;;;;;;;4.10;0.80;;;;;;;;;;5011503;28;20029;-72
2023/09/02 09:24:50;;;;;;;1.85;0.60;;;;;;;;;;5002174;28;20029;-72
2023/09/02 09:27:16;;;;;;;0.80;0.60;;;;;;;;;;5012708;28;20032;-72
2023/09/02 09:29:41;;;;;;;1.90;0.80;;;;;;;;;;5005070;28;20049;-72
2023/09/02 09:32:11;;;;;;;1.00;0.70;;;;;;;;;;4998252;28;20018;-72
2023/09/02 09:34:43;;;;;;;1.23;0.50;;;;;;;;;;4997101;28;20499;-72
2023/09/02 09:37:09;;;;;;;3.92;0.80;;;;;;;;;;5004720;28;20029;-72
2023/09/02 09:39:40;;;;;;;1.75;0.85;;;;;;;;;;5004952;28;20164;-72
2023/09/02 09:42:05;;;;;;;1.33;0.77;;;;;;;;;;5004822;28;20089;-72
2023/09/02 09:44:31;;;;;;;4.00;0.70;;;;;;;;;;5002149;28;20101;-72
2023/09/02 09:46:56;;;;;;;5.93;0.70;;;;;;;;;;5002868;28;20064;-72
2023/09/02 09:49:25;;;;;;;5.37;0.60;;;;;;;;;;5005049;28;20025;-72
2023/09/02 09:51:51;;;;;;;3.72;1.58;;;;;;;;;;5010167;28;20050;-72
2023/09/02 09:54:16;;;;;;;3.40;0.70;;;;;;;;;;5010104;28;20248;-72
2023/09/02 09:56:42;;;;;;;0.90;0.43;;;;;;;;;;5010424;28;20030;-72
2023/09/02 09:59:10;;;;;;;1.27;0.70;;;;;;;;;;5010444;28;20033;-72
2023/09/02 10:01:37;;;;;;;6.80;1.30;;;;;;;;;;5006805;28;20395;-72
2023/09/02 10:04:08;;;;;;;1.75;1.13;;;;;;;;;;5011567;28;20017;-72
2023/09/02 10:06:39;;;;;;;1.08;0.60;;;;;;;;;;5014176;28;20048;-72
2023/09/02 10:09:05;;;;;;;3.65;0.95;;;;;;;;;;5014294;28;20048;-72
2023/09/02 10:11:30;;;;;;;2.73;0.70;;;;;;;;;;5013827;28;20022;-72
2023/09/02 10:13:57;;;;;;;5.30;1.20;;;;;;;;;;5013464;28;20260;-73
2023/09/02 10:16:23;;;;;;;0.90;0.57;;;;;;;;;;5007722;28;20281;-72
2023/09/02 10:18:49;;;;;;;4.10;0.95;;;;;;;;;;5011493;28;20018;-73
2023/09/02 10:21:24;;;;;;;1.13;0.80;;;;;;;;;;5013836;28;20383;-72
2023/09/02 10:23:50;;;;;;;1.20;0.73;;;;;;;;;;5014394;28;20014;-73
2023/09/02 10:26:23;;;;;;;4.97;0.70;;;;;;;;;;5013966;28;20022;-73
2023/09/02 10:28:49;;;;;;;3.45;0.70;;;;;;;;;;5013209;28;20057;-73
2023/09/02 10:31:18;;;;;;;1.23;0.60;;;;;;;;;;5006806;28;20057;-70
2023/09/02 10:33:53;;;;;;;2.03;0.70;;;;;;;;;;5012286;28;20439;-70
2023/09/02 10:36:19;;;;;;;1.52;0.70;;;;;;;;;;5008414;28;20033;-70
2023/09/02 10:38:47;;;;;;;0.80;0.63;;;;;;;;;;5013440;28;20084;-70
2023/09/02 10:41:16;;;;;;;2.33;0.60;;;;;;;;;;5013356;28;20018;-70
2023/09/02 10:43:42;;;;;;;0.90;0.60;;;;;;;;;;5013722;28;20014;-70
2023/09/02 10:46:07;;;;;;;2.15;0.70;;;;;;;;;;5009625;28;20022;-70
2023/09/02 10:48:33;;;;;;;5.80;0.73;;;;;;;;;;5013029;28;20088;-70
2023/09/02 10:50:59;;;;;;;3.00;0.68;;;;;;;;;;5011885;28;20026;-70
2023/09/02 10:53:43;;;;;;;2.97;0.70;;;;;;;;;;5013423;28;20014;-70
2023/09/02 10:56:08;;;;;;;1.00;0.68;;;;;;;;;;5012132;28;20026;-70
2023/09/02 10:58:54;;;;;;;1.58;0.80;;;;;;;;;;5012237;28;20014;-70
2023/09/02 11:01:19;;;;;;;2.80;0.55;;;;;;;;;;5010475;28;20030;-70
2023/09/02 11:03:54;;;;;;;2.95;0.50;;;;;;;;;;5013136;28;20032;-70
2023/09/02 11:06:19;;;;;;;1.88;0.52;;;;;;;;;;5012875;28;20029;-70
2023/09/02 11:08:46;;;;;;;1.35;0.70;;;;;;;;;;5012999;28;20030;-70
2023/09/02 11:11:12;;;;;;;0.93;0.60;;;;;;;;;;5011703;28;20190;-70
2023/09/02 11:13:56;;;;;;;2.42;0.68;;;;;;;;;;5007456;28;20305;-70
2023/09/02 11:16:21;;;;;;;1.55;0.30;;;;;;;;;;5012355;28;20026;-70
2023/09/02 11:18:47;;;;;;;3.43;0.83;;;;;;;;;;5010187;28;20092;-70
2023/09/02 11:21:32;;;;;;;3.17;0.60;;;;;;;;;;5011696;28;20029;-70
2023/09/02 11:24:13;;;;;;;10.57;0.90;;;;;;;;;;5010738;28;20460;-70
2023/09/02 11:26:54;;;;;;;1.27;0.60;;;;;;;;;;5010578;28;20045;-70
2023/09/02 11:29:22;;;;;;;1.00;0.60;;;;;;;;;;5006323;28;20097;-71
2023/09/02 11:31:54;;;;;;;2.03;0.70;;;;;;;;;;5012595;28;20018;-73
2023/09/02 11:34:19;;;;;;;2.00;0.57;;;;;;;;;;5012585;28;20407;-73
2023/09/02 11:36:45;;;;;;;1.70;0.80;;;;;;;;;;5012337;28;20105;-71
2023/09/02 11:39:10;;;;;;;3.38;1.05;;;;;;;;;;5012587;28;20340;-70
2023/09/02 11:41:35;;;;;;;1.42;0.70;;;;;;;;;;5009218;28;20557;-70
2023/09/02 11:44:08;;;;;;;5.37;1.20;;;;;;;;;;5002572;28;20072;-73
2023/09/02 11:46:36;;;;;;;4.55;0.80;;;;;;;;;;5012350;28;20108;-73
2023/09/02 11:49:02;;;;;;;3.97;1.17;;;;;;;;;;5012705;28;20041;-73
2023/09/02 11:51:28;;;;;;;1.73;0.90;;;;;;;;;;5012050;28;20022;-71
2023/09/02 11:53:55;;;;;;;3.23;1.10;;;;;;;;;;5011714;28;20359;-71
2023/09/02 11:56:20;;;;;;;1.58;0.93;;;;;;;;;;5010490;28;20284;-71
2023/09/02 11:58:45;;;;;;;2.47;1.00;;;;;;;;;;5004222;28;20010;-71
2023/09/02 12:01:10;;;;;;;3.60;1.20;;;;;;;;;;5011985;28;20261;-71
2023/09/02 12:03:35;;;;;;;2.10;0.83;;;;;;;;;;5011800;28;20502;-71
2023/09/02 12:06:01;;;;;;;3.20;1.20;;;;;;;;;;5012172;28;20025;-71
2023/09/02 12:08:29;;;;;;;2.53;1.20;;;;;;;;;;5011674;28;20249;-70
2023/09/02 12:10:54;;;;;;;3.63;1.17;;;;;;;;;;5005080;28;20498;-70
2023/09/02 12:13:19;;;;;;;2.47;1.20;;;;;;;;;;5009583;28;20026;-71
2023/09/02 12:15:49;;;;;;;4.93;1.08;;;;;;;;;;5011710;28;20300;-72
2023/09/02 12:18:15;;;;;;;4.70;0.98;;;;;;;;;;5011635;28;20037;-73
2023/09/02 12:20:40;;;;;;;5.40;1.23;;;;;;;;;;5011810;28;20018;-73
2023/09/02 12:23:05;;;;;;;4.47;1.15;;;;;;;;;;5011576;28;20137;-73
2023/09/02 12:25:33;;;;;;;1.67;0.90;;;;;;;;;;5005624;28;20030;-73
2023/09/02 12:28:11;;;;;;;2.72;1.08;;;;;;;;;;5000398;28;20018;-73
2023/09/02 12:30:37;;;;;;;2.75;1.10;;;;;;;;;;5006725;28;20030;-71
2023/09/02 12:33:02;;;;;;;1.80;0.90;;;;;;;;;;5008469;28;20102;-71
2023/09/02 12:35:28;;;;;;;4.05;1.55;;;;;;;;;;5009553;28;20022;-71
2023/09/02 12:38:06;;;;;;;3.30;1.05;;;;;;;;;;5007220;28;20037;-71
2023/09/02 12:40:31;;;;;;;4.40;1.20;;;;;;;;;;5000788;28;20045;-71
2023/09/02 12:42:57;;;;;;;4.80;1.08;;;;;;;;;;5007192;28;20049;-71
2023/09/02 12:45:32;;;;;;;5.18;1.33;;;;;;;;;;5006233;28;20072;-71
2023/09/02 12:47:59;;;;;;;2.55;1.10;;;;;;;;;;5010993;28;20108;-71
2023/09/02 12:50:25;;;;;;;3.55;1.08;;;;;;;;;;5010069;28;20471;-71
2023/09/02 12:52:57;;;;;;;4.15;1.13;;;;;;;;;;5008111;28;20364;-71
2023/09/02 12:55:23;;;;;;;4.60;0.90;;;;;;;;;;5011025;28;20414;-71
2023/09/02 12:57:48;;;;;;;3.10;1.00;;;;;;;;;;5008177;28;20022;-71
2023/09/02 13:00:13;;;;;;;2.30;0.82;;;;;;;;;;5011078;28;20529;-71
2023/09/02 13:02:38;;;;;;;6.03;1.20;;;;;;;;;;5008456;28;20017;-72
2023/09/02 13:05:04;;;;;;;2.93;1.20;;;;;;;;;;5005503;28;21075;-73
2023/09/02 13:07:31;;;;;;;2.47;1.20;;;;;;;;;;5005787;28;20285;-73
2023/09/02 13:09:56;;;;;;;1.67;0.90;;;;;;;;;;5010853;28;20049;-73
2023/09/02 13:12:21;;;;;;;1.67;1.00;;;;;;;;;;5009466;28;20387;-73
2023/09/02 13:14:47;;;;;;;3.63;1.00;;;;;;;;;;5010625;28;20111;-73
2023/09/02 13:17:15;;;;;;;4.68;0.80;;;;;;;;;;5003157;28;20476;-73
2023/09/02 13:19:40;;;;;;;3.78;1.17;;;;;;;;;;5005507;28;20044;-73
2023/09/02 13:22:06;;;;;;;7.37;1.00;;;;;;;;;;4992889;28;20398;-73
2023/09/02 13:24:31;;;;;;;2.67;0.88;;;;;;;;;;5010488;28;20311;-73
2023/09/02 13:26:59;;;;;;;3.97;1.13;;;;;;;;;;5000325;28;20013;-73
2023/09/02 13:29:26;;;;;;;1.55;0.77;;;;;;;;;;5006839;28;20062;-73
2023/09/02 13:31:51;;;;;;;2.03;0.90;;;;;;;;;;4999560;28;20018;-71
2023/09/02 13:34:29;;;;;;;1.85;0.80;;;;;;;;;;5010433;28;20010;-71
2023/09/02 13:37:16;;;;;;;3.03;0.93;;;;;;;;;;5009901;28;20029;-71
2023/09/02 13:39:43;;;;;;;1.60;0.90;;;;;;;;;;5009388;28;20099;-71
2023/09/02 13:42:13;;;;;;;2.42;0.90;;;;;;;;;;5003446;28;20373;-71
2023/09/02 13:44:41;;;;;;;3.08;0.90;;;;;;;;;;5009584;28;20041;-71
2023/09/02 13:47:06;;;;;;;2.20;0.80;;;;;;;;;;5002751;28;20022;-71
2023/09/02 13:49:32;;;;;;;3.63;1.05;;;;;;;;;;5009949;28;20147;-71
2023/09/02 13:51:57;;;;;;;1.50;0.80;;;;;;;;;;5008748;28;20026;-73
2023/09/02 13:54:24;;;;;;;3.28;0.95;;;;;;;;;;5008541;28;20205;-73
2023/09/02 13:56:50;;;;;;;4.18;1.00;;;;;;;;;;5005408;28;20054;-73
2023/09/02 13:59:15;;;;;;;1.95;1.00;;;;;;;;;;5006303;28;20053;-73
2023/09/02 14:01:40;;;;;;;4.60;1.37;;;;;;;;;;5010071;28;20026;-71
2023/09/02 14:04:06;;;;;;;1.67;1.05;;;;;;;;;;5010625;28;20025;-71
2023/09/02 14:06:31;;;;;;;2.80;1.00;;;;;;;;;;5009996;28;20022;-71
2023/09/02 14:08:58;;;;;;;1.50;1.07;;;;;;;;;;5009203;28;20518;-71
2023/09/02 14:11:24;;;;;;;2.70;1.48;;;;;;;;;;5009157;28;20371;-73
2023/09/02 14:13:51;;;;;;;2.83;1.02;;;;;;;;;;5010209;28;20064;-73
2023/09/02 14:16:16;;;;;;;1.05;0.82;;;;;;;;;;5009216;28;20022;-73
2023/09/02 14:18:41;;;;;;;2.13;1.00;;;;;;;;;;5000644;28;20032;-74
2023/09/02 14:21:07;;;;;;;2.97;1.10;;;;;;;;;;4999533;28;20498;-73
2023/09/02 14:23:33;;;;;;;1.70;1.00;;;;;;;;;;5010236;28;20104;-73
2023/09/02 14:25:58;;;;;;;1.17;0.90;;;;;;;;;;5010395;28;20101;-73
2023/09/02 14:28:23;;;;;;;1.40;1.10;;;;;;;;;;5010220;28;20304;-73
2023/09/02 14:30:49;;;;;;;3.05;1.60;;;;;;;;;;5008001;28;20506;-73
2023/09/02 14:33:14;;;;;;;4.20;1.20;;;;;;;;;;5009799;28;20458;-74